createdAt,value
2017-10-17T00:01:18.480Z,10.82
2017-10-17T00:03:46.379Z,10.68
2017-10-17T00:06:13.884Z,11.43
2017-10-17T00:08:41.403Z,11.07
2017-10-17T00:11:10.658Z,9.20
2017-10-17T00:13:38.567Z,9.75
2017-10-17T00:16:06.065Z,11.38
2017-10-17T00:18:33.542Z,10.45
2017-10-17T00:21:01.441Z,11.18
2017-10-17T00:23:28.927Z,10.85
2017-10-17T00:25:56.427Z,11.07
2017-10-17T00:28:24.306Z,10.07
2017-10-17T00:30:52.223Z,9.43
2017-10-17T00:33:20.504Z,9.93
2017-10-17T00:39:05.315Z,9.70
2017-10-17T00:41:32.816Z,9.32
2017-10-17T00:44:00.302Z,10.48
2017-10-17T00:46:28.825Z,10.13
2017-10-17T00:48:56.704Z,10.45
2017-10-17T00:51:25.654Z,9.77
2017-10-17T00:53:54.023Z,10.20
2017-10-17T00:56:21.507Z,10.85
2017-10-17T00:58:49.004Z,9.88
2017-10-17T01:01:16.508Z,10.27
2017-10-17T01:03:44.920Z,9.63
2017-10-17T01:06:14.787Z,10.70
2017-10-17T01:08:42.273Z,8.90
2017-10-17T01:11:09.776Z,10.05
2017-10-17T01:13:37.260Z,9.30
2017-10-17T01:16:04.755Z,9.65
2017-10-17T01:18:32.630Z,9.95
2017-10-17T01:21:11.343Z,10.50
2017-10-17T01:23:57.840Z,9.85
2017-10-17T01:26:25.341Z,10.35
2017-10-17T01:28:59.422Z,9.82
2017-10-17T01:31:27.311Z,9.88
2017-10-17T01:33:56.755Z,9.80
2017-10-17T01:36:24.235Z,8.52
2017-10-17T01:38:59.308Z,9.55
2017-10-17T01:41:26.855Z,10.13
2017-10-17T01:44:21.131Z,9.27
2017-10-17T01:46:49.002Z,8.88
2017-10-17T01:49:18.707Z,7.82
2017-10-17T01:51:48.439Z,9.00
2017-10-17T01:54:15.948Z,10.00
2017-10-17T01:56:43.471Z,8.95
2017-10-17T01:59:16.527Z,10.30
2017-10-17T02:01:44.399Z,8.50
2017-10-17T02:04:12.283Z,9.85
2017-10-17T02:06:39.785Z,10.00
2017-10-17T02:09:07.268Z,9.80
2017-10-17T02:11:35.144Z,9.32
2017-10-17T02:14:03.042Z,9.88
2017-10-17T02:16:32.709Z,8.98
2017-10-17T02:19:03.107Z,8.95
2017-10-17T02:21:31.555Z,9.30
2017-10-17T02:23:59.991Z,10.57
2017-10-17T02:26:29.051Z,9.55
2017-10-17T02:29:00.028Z,9.20
2017-10-17T02:31:27.537Z,10.15
2017-10-17T02:34:15.757Z,10.10
2017-10-17T02:36:44.278Z,10.80
2017-10-17T02:39:11.755Z,10.43
2017-10-17T02:41:39.261Z,9.90
2017-10-17T02:44:06.776Z,10.55
2017-10-17T02:46:35.131Z,10.45
2017-10-17T02:49:08.002Z,10.85
2017-10-17T02:51:35.491Z,10.90
2017-10-17T02:54:02.998Z,9.27
2017-10-17T02:56:30.509Z,9.27
2017-10-17T02:58:58.032Z,9.82
2017-10-17T03:01:34.352Z,9.45
2017-10-17T03:04:02.227Z,9.38
2017-10-17T03:06:30.095Z,9.50
2017-10-17T03:08:57.987Z,10.20
2017-10-17T03:11:25.471Z,11.23
2017-10-17T03:14:03.770Z,10.13
2017-10-17T03:16:31.269Z,10.43
2017-10-17T03:18:59.219Z,9.85
2017-10-17T03:21:28.290Z,11.07
2017-10-17T03:24:17.228Z,9.15
2017-10-17T03:26:44.727Z,9.63
2017-10-17T03:29:12.207Z,10.27
2017-10-17T03:31:39.684Z,8.73
2017-10-17T03:34:11.282Z,9.90
2017-10-17T03:39:56.806Z,10.00
2017-10-17T03:42:25.071Z,9.55
2017-10-17T03:44:54.488Z,10.45
2017-10-17T03:47:36.955Z,9.93
2017-10-17T03:50:05.192Z,10.18
2017-10-17T03:52:35.805Z,8.43
2017-10-17T03:55:03.303Z,8.77
2017-10-17T03:57:31.740Z,9.80
2017-10-17T03:59:59.954Z,9.73
2017-10-17T04:02:27.851Z,8.60
2017-10-17T04:05:02.212Z,8.32
2017-10-17T04:10:44.557Z,9.98
2017-10-17T04:13:25.225Z,9.43
2017-10-17T04:15:53.126Z,9.63
2017-10-17T04:21:34.592Z,9.10
2017-10-17T04:24:27.264Z,8.95
2017-10-17T04:26:55.632Z,8.82
2017-10-17T04:29:40.028Z,9.88
2017-10-17T04:32:07.531Z,8.68
2017-10-17T04:34:39.168Z,9.50
2017-10-17T04:37:17.459Z,9.65
2017-10-17T04:39:45.020Z,9.45
2017-10-17T04:42:44.175Z,9.18
2017-10-17T04:45:18.161Z,9.32
2017-10-17T04:47:54.983Z,8.95
2017-10-17T04:53:32.807Z,9.45
2017-10-17T04:56:01.951Z,10.07
2017-10-17T04:58:52.882Z,10.57
2017-10-17T05:01:20.774Z,10.32
2017-10-17T05:03:50.215Z,9.63
2017-10-17T05:06:17.719Z,9.70
2017-10-17T05:08:49.744Z,10.23
2017-10-17T05:11:29.079Z,8.93
2017-10-17T05:17:08.078Z,10.02
2017-10-17T05:19:47.214Z,9.50
2017-10-17T05:22:22.232Z,10.50
2017-10-17T05:24:56.433Z,9.07
2017-10-17T05:27:37.028Z,9.52
2017-10-17T05:30:11.972Z,9.82
2017-10-17T05:32:39.470Z,9.02
2017-10-17T05:35:06.961Z,9.68
2017-10-17T05:37:35.399Z,9.90
2017-10-17T05:40:02.867Z,9.88
2017-10-17T05:42:32.344Z,10.15
2017-10-17T05:45:01.724Z,10.00
2017-10-17T05:47:33.843Z,9.88
2017-10-17T05:50:09.226Z,10.63
2017-10-17T05:52:43.192Z,10.05
2017-10-17T05:55:10.666Z,9.93
2017-10-17T05:57:38.566Z,9.60
2017-10-17T06:00:06.056Z,10.35
2017-10-17T06:02:33.538Z,11.02
2017-10-17T06:05:01.443Z,9.55
2017-10-17T06:07:28.939Z,9.00
2017-10-17T06:09:58.402Z,9.50
2017-10-17T06:12:25.920Z,9.98
2017-10-17T06:14:53.806Z,9.20
2017-10-17T06:17:21.704Z,9.48
2017-10-17T06:19:49.187Z,9.75
2017-10-17T06:22:18.635Z,10.57
2017-10-17T06:24:46.509Z,9.68
2017-10-17T06:27:14.407Z,10.80
2017-10-17T06:29:41.913Z,9.90
2017-10-17T06:32:09.385Z,9.05
2017-10-17T06:34:37.279Z,10.73
2017-10-17T06:37:04.774Z,9.27
2017-10-17T06:39:32.268Z,9.98
2017-10-17T06:42:01.088Z,9.73
2017-10-17T06:44:28.563Z,10.52
2017-10-17T06:46:56.054Z,9.82
2017-10-17T06:49:23.534Z,11.73
2017-10-17T06:51:51.431Z,10.25
2017-10-17T06:54:19.848Z,11.75
2017-10-17T06:56:47.346Z,11.05
2017-10-17T06:59:18.935Z,11.12
2017-10-17T07:01:49.362Z,11.43
2017-10-17T07:04:17.739Z,10.00
2017-10-17T07:06:45.240Z,12.10
2017-10-17T07:09:13.137Z,11.65
2017-10-17T07:11:40.657Z,11.50
2017-10-17T07:14:08.138Z,11.00
2017-10-17T07:16:36.070Z,13.43
2017-10-17T07:19:03.545Z,13.80
2017-10-17T07:21:31.044Z,13.73
2017-10-17T07:23:58.547Z,13.15
2017-10-17T07:26:26.051Z,12.15
2017-10-17T07:28:53.562Z,15.70
2017-10-17T07:31:21.048Z,13.02
2017-10-17T07:33:49.839Z,13.68
2017-10-17T07:36:17.746Z,16.30
2017-10-17T07:38:45.236Z,13.90
2017-10-17T07:41:12.750Z,13.73
2017-10-17T07:43:40.243Z,14.98
2017-10-17T07:46:07.765Z,16.48
2017-10-17T07:48:36.247Z,15.40
2017-10-17T07:51:04.387Z,16.52
2017-10-17T07:53:32.287Z,16.15
2017-10-17T07:55:59.801Z,14.98
2017-10-17T07:58:27.288Z,17.60
2017-10-17T08:00:54.809Z,17.25
2017-10-17T08:03:22.300Z,16.27
2017-10-17T08:05:49.822Z,15.95
2017-10-17T08:08:17.312Z,15.88
2017-10-17T08:10:44.824Z,15.65
2017-10-17T08:13:12.322Z,14.87
2017-10-17T08:15:40.208Z,16.62
2017-10-17T08:18:07.747Z,16.08
2017-10-17T08:20:35.634Z,15.13
2017-10-17T08:23:03.148Z,15.15
2017-10-17T08:25:31.576Z,15.60
2017-10-17T08:27:59.072Z,16.40
2017-10-17T08:30:26.590Z,15.35
2017-10-17T08:32:54.084Z,15.50
2017-10-17T08:35:23.540Z,16.33
2017-10-17T08:37:53.383Z,14.75
2017-10-17T08:40:20.891Z,14.73
2017-10-17T08:42:48.807Z,15.07
2017-10-17T08:45:16.305Z,14.50
2017-10-17T08:47:45.751Z,14.45
2017-10-17T08:50:13.247Z,13.90
2017-10-17T08:52:40.742Z,13.30
2017-10-17T08:55:08.655Z,13.30
2017-10-17T08:57:36.173Z,12.35
2017-10-17T09:00:04.068Z,13.05
2017-10-17T09:02:31.576Z,11.90
2017-10-17T09:04:59.063Z,13.93
2017-10-17T09:07:26.579Z,12.20
2017-10-17T09:09:54.111Z,12.60
2017-10-17T09:12:21.627Z,13.40
2017-10-17T09:14:49.131Z,11.93
2017-10-17T09:17:16.664Z,12.45
2017-10-17T09:19:44.165Z,12.47
2017-10-17T09:22:11.674Z,13.63
2017-10-17T09:27:13.495Z,11.68
2017-10-17T09:29:40.993Z,12.85
2017-10-17T09:32:08.907Z,13.23
2017-10-17T09:34:36.391Z,13.90
2017-10-17T09:37:03.916Z,12.87
2017-10-17T09:39:31.413Z,11.60
2017-10-17T09:41:58.927Z,12.70
2017-10-17T09:44:26.427Z,13.63
2017-10-17T09:46:53.938Z,12.70
2017-10-17T09:49:21.448Z,12.60
2017-10-17T09:51:48.962Z,12.47
2017-10-17T09:54:16.527Z,11.50
2017-10-17T09:56:44.910Z,12.50
2017-10-17T09:59:12.426Z,12.33
2017-10-17T10:01:40.307Z,12.80
2017-10-17T10:04:07.819Z,12.23
2017-10-17T10:06:35.334Z,12.25
2017-10-17T10:09:02.824Z,12.90
2017-10-17T10:11:30.330Z,13.30
2017-10-17T10:13:58.225Z,11.90
2017-10-17T10:16:25.730Z,13.00
2017-10-17T10:18:55.177Z,12.70
2017-10-17T10:21:22.672Z,10.93
2017-10-17T10:23:50.171Z,11.57
2017-10-17T10:26:18.074Z,11.40
2017-10-17T10:28:46.159Z,12.20
2017-10-17T10:31:13.667Z,10.33
2017-10-17T10:33:41.547Z,10.90
2017-10-17T10:36:11.392Z,10.87
2017-10-17T10:38:38.902Z,9.97
2017-10-17T10:41:06.392Z,9.50
2017-10-17T10:43:33.895Z,9.20
2017-10-17T10:46:01.392Z,8.87
2017-10-17T10:48:30.206Z,8.33
2017-10-17T10:50:57.708Z,9.30
2017-10-17T10:53:25.190Z,9.00
2017-10-17T10:55:53.090Z,9.47
2017-10-17T10:58:20.587Z,9.30
2017-10-17T11:00:48.063Z,8.83
2017-10-17T11:03:15.548Z,9.70
2017-10-17T11:05:45.051Z,10.70
2017-10-17T11:08:12.537Z,9.30
2017-10-17T11:10:40.032Z,9.70
2017-10-17T11:13:07.520Z,8.00
2017-10-17T11:15:35.042Z,9.10
2017-10-17T11:18:02.550Z,8.73
2017-10-17T11:20:30.047Z,9.63
2017-10-17T11:22:57.534Z,8.73
2017-10-17T11:25:25.432Z,7.37
2017-10-17T11:27:53.850Z,7.33
2017-10-17T11:30:21.352Z,9.83
2017-10-17T11:32:49.222Z,8.40
2017-10-17T11:35:17.123Z,8.30
2017-10-17T11:37:44.619Z,7.37
2017-10-17T11:40:13.087Z,8.30
2017-10-17T11:42:52.535Z,6.53
2017-10-17T11:45:20.020Z,8.23
2017-10-17T11:47:48.840Z,7.80
2017-10-17T11:50:16.343Z,7.50
2017-10-17T11:52:43.875Z,8.10
2017-10-17T11:55:11.387Z,6.73
2017-10-17T11:57:39.270Z,7.20
2017-10-17T12:00:06.777Z,6.20
2017-10-17T12:02:34.264Z,6.43
2017-10-17T12:05:02.163Z,7.33
2017-10-17T12:07:29.647Z,7.30
2017-10-17T12:09:57.143Z,6.50
2017-10-17T12:12:25.016Z,6.83
2017-10-17T12:14:52.909Z,6.20
2017-10-17T12:17:20.396Z,7.30
2017-10-17T12:19:47.884Z,6.27
2017-10-17T12:22:16.680Z,6.17
2017-10-17T12:24:44.566Z,5.77
2017-10-17T12:27:12.450Z,5.60
2017-10-17T12:29:39.946Z,6.83
2017-10-17T12:32:07.432Z,5.60
2017-10-17T12:34:35.328Z,5.70
2017-10-17T12:37:02.819Z,6.57
2017-10-17T12:39:30.297Z,6.40
2017-10-17T12:41:57.798Z,6.37
2017-10-17T12:44:25.279Z,6.00
2017-10-17T12:46:52.790Z,6.30
2017-10-17T12:49:20.700Z,5.90
2017-10-17T12:51:48.179Z,6.17
2017-10-17T12:54:15.682Z,5.90
2017-10-17T12:56:43.595Z,5.60
2017-10-17T12:59:11.082Z,5.70
2017-10-17T13:01:38.587Z,5.20
2017-10-17T13:04:07.046Z,5.23
2017-10-17T13:06:34.566Z,4.80
2017-10-17T13:09:02.060Z,4.90
2017-10-17T13:11:29.943Z,4.90
2017-10-17T13:13:57.443Z,4.47
2017-10-17T13:16:24.930Z,4.50
2017-10-17T13:18:52.406Z,4.70
2017-10-17T13:21:20.300Z,4.93
2017-10-17T13:23:48.719Z,4.83
2017-10-17T13:26:18.182Z,5.00
2017-10-17T13:28:45.664Z,4.80
2017-10-17T13:31:14.100Z,4.77
2017-10-17T13:33:41.583Z,4.23
2017-10-17T13:36:09.082Z,4.20
2017-10-17T13:38:36.592Z,4.93
2017-10-17T13:41:04.098Z,4.80
2017-10-17T13:43:31.583Z,5.30
2017-10-17T13:45:59.461Z,4.97
2017-10-17T13:48:27.927Z,4.53
2017-10-17T13:50:55.791Z,4.90
2017-10-17T13:53:23.693Z,5.03
2017-10-17T13:55:51.207Z,4.90
2017-10-17T13:58:19.117Z,5.17
2017-10-17T14:00:46.632Z,4.70
2017-10-17T14:03:14.111Z,5.20
2017-10-17T14:05:41.975Z,5.83
2017-10-17T14:08:09.872Z,5.00
2017-10-17T14:10:37.380Z,5.10
2017-10-17T14:13:04.883Z,5.20
2017-10-17T14:15:32.369Z,4.80
2017-10-17T14:17:59.921Z,5.03
2017-10-17T14:20:29.371Z,5.30
2017-10-17T14:22:57.244Z,5.13
2017-10-17T14:25:25.144Z,5.33
2017-10-17T14:27:52.710Z,5.53
2017-10-17T14:30:22.197Z,5.00
2017-10-17T14:32:49.688Z,4.80
2017-10-17T14:35:17.189Z,5.17
2017-10-17T14:37:45.067Z,5.50
2017-10-17T14:40:12.571Z,5.30
2017-10-17T14:42:40.056Z,5.07
2017-10-17T14:45:07.549Z,4.93
2017-10-17T14:47:35.047Z,5.20
2017-10-17T14:50:04.519Z,5.67
2017-10-17T14:52:32.024Z,5.27
2017-10-17T14:54:59.552Z,5.40
2017-10-17T14:57:27.078Z,4.73
2017-10-17T14:59:54.623Z,4.57
2017-10-17T15:02:22.535Z,4.53
2017-10-17T15:04:50.058Z,4.90
2017-10-17T15:07:17.587Z,5.13
2017-10-17T15:09:45.087Z,5.73
2017-10-17T15:12:13.522Z,5.80
2017-10-17T15:14:41.044Z,5.43
2017-10-17T15:17:08.566Z,5.37
2017-10-17T15:19:36.497Z,4.90
2017-10-17T15:22:04.053Z,4.97
2017-10-17T15:24:31.651Z,5.90
2017-10-17T15:26:59.187Z,5.87
2017-10-17T15:29:26.712Z,5.53
2017-10-17T15:31:54.210Z,4.83
2017-10-17T15:34:21.767Z,5.40
2017-10-17T15:36:49.311Z,5.53
2017-10-17T15:39:17.263Z,5.03
2017-10-17T15:41:44.778Z,5.40
2017-10-17T15:44:12.716Z,4.80
2017-10-17T15:46:40.268Z,4.83
2017-10-17T15:49:07.775Z,5.57
2017-10-17T15:51:35.555Z,6.00
2017-10-17T15:54:03.095Z,5.23
2017-10-17T15:56:30.684Z,5.30
2017-10-17T15:58:58.218Z,5.70
2017-10-17T16:01:25.719Z,5.63
2017-10-17T16:03:53.222Z,5.60
2017-10-17T16:06:21.145Z,6.00
2017-10-17T16:08:48.694Z,6.07
2017-10-17T16:11:17.300Z,5.43
2017-10-17T16:13:44.829Z,6.20
2017-10-17T16:16:12.368Z,5.80
2017-10-17T16:18:39.934Z,5.77
2017-10-17T16:21:07.526Z,5.50
2017-10-17T16:23:35.039Z,6.20
2017-10-17T16:26:02.560Z,5.17
2017-10-17T16:28:30.137Z,6.30
2017-10-17T16:30:58.031Z,8.20
2017-10-17T16:33:25.706Z,7.83
2017-10-17T16:35:53.277Z,7.23
2017-10-17T16:38:20.885Z,8.83
2017-10-17T16:40:48.797Z,11.67
2017-10-17T16:43:16.313Z,13.77
2017-10-17T16:45:44.232Z,13.70
2017-10-17T16:48:11.773Z,9.90
2017-10-17T16:50:39.312Z,11.30
2017-10-17T16:53:08.097Z,14.13
2017-10-17T16:55:36.035Z,18.20
2017-10-17T16:58:03.580Z,20.77
2017-10-17T17:00:31.128Z,27.43
2017-10-17T17:02:58.727Z,37.40
2017-10-17T17:05:26.699Z,38.27
2017-10-17T17:07:54.654Z,39.30
2017-10-17T17:10:22.173Z,37.40
2017-10-17T17:12:49.730Z,41.70
2017-10-17T17:15:18.199Z,41.30
2017-10-17T17:17:46.740Z,37.67
2017-10-17T17:20:14.639Z,33.70
2017-10-17T17:22:42.280Z,25.23
2017-10-17T17:25:12.241Z,21.00
2017-10-17T17:27:39.768Z,17.40
2017-10-17T17:30:08.667Z,17.57
2017-10-17T17:32:36.207Z,20.13
2017-10-17T17:35:04.132Z,20.00
2017-10-17T17:37:31.660Z,17.60
2017-10-17T17:39:59.179Z,16.50
2017-10-17T17:42:26.687Z,14.87
2017-10-17T17:44:54.214Z,15.10
2017-10-17T17:47:22.190Z,14.47
2017-10-17T17:49:50.162Z,12.07
2017-10-17T17:52:18.097Z,12.67
2017-10-17T17:54:45.627Z,13.70
2017-10-17T17:57:13.166Z,11.90
2017-10-17T17:59:40.711Z,12.80
2017-10-17T18:02:08.304Z,11.43
2017-10-17T18:04:35.807Z,9.83
2017-10-17T18:07:04.536Z,9.43
2017-10-17T18:09:33.610Z,9.30
2017-10-17T18:12:01.148Z,8.18
2017-10-17T18:14:30.292Z,7.40
2017-10-17T18:16:57.815Z,8.30
2017-10-17T18:19:25.728Z,7.37
2017-10-17T18:21:54.644Z,6.90
2017-10-17T18:24:22.144Z,8.40
2017-10-17T18:26:50.063Z,8.77
2017-10-17T18:29:17.593Z,8.77
2017-10-17T18:31:46.071Z,9.60
2017-10-17T18:34:13.600Z,8.73
2017-10-17T18:36:41.582Z,8.00
2017-10-17T18:39:09.234Z,7.60
2017-10-17T18:41:36.768Z,8.60
2017-10-17T18:44:04.765Z,8.45
2017-10-17T18:46:33.149Z,8.30
2017-10-17T18:49:01.448Z,8.33
2017-10-17T18:51:28.984Z,7.85
2017-10-17T18:53:56.503Z,8.10
2017-10-17T18:56:24.955Z,8.15
2017-10-17T18:58:52.498Z,8.30
2017-10-17T19:01:20.027Z,7.15
2017-10-17T19:03:47.923Z,6.95
2017-10-17T19:06:15.449Z,7.70
2017-10-17T19:08:44.373Z,7.50
2017-10-17T19:11:11.906Z,6.55
2017-10-17T19:13:39.828Z,7.93
2017-10-17T19:16:07.355Z,8.10
2017-10-17T19:18:34.947Z,7.78
2017-10-17T19:21:02.455Z,7.50
2017-10-17T19:23:30.968Z,7.93
2017-10-17T19:25:58.492Z,9.37
2017-10-17T19:28:26.009Z,7.40
2017-10-17T19:30:53.526Z,7.70
2017-10-17T19:33:21.031Z,8.20
2017-10-17T19:35:48.563Z,8.23
2017-10-17T19:38:17.386Z,7.68
2017-10-17T19:40:44.919Z,8.43
2017-10-17T19:43:12.507Z,8.02
2017-10-17T19:45:40.020Z,8.40
2017-10-17T19:48:07.535Z,8.98
2017-10-17T19:50:35.467Z,7.83
2017-10-17T19:53:04.966Z,8.02
2017-10-17T19:55:32.484Z,8.55
2017-10-17T19:58:00.015Z,9.10
2017-10-17T20:00:27.530Z,8.88
2017-10-17T20:02:57.022Z,10.07
2017-10-17T20:05:24.519Z,9.90
2017-10-17T20:07:52.027Z,9.30
2017-10-17T20:10:19.579Z,8.77
2017-10-17T20:12:48.412Z,8.27
2017-10-17T20:15:15.942Z,9.52
2017-10-17T20:17:43.527Z,9.55
2017-10-17T20:20:11.037Z,9.85
2017-10-17T20:22:38.960Z,9.55
2017-10-17T20:25:06.506Z,9.25
2017-10-17T20:27:34.059Z,10.07
2017-10-17T20:30:01.572Z,9.43
2017-10-17T20:32:29.096Z,9.32
2017-10-17T20:34:57.601Z,9.05
2017-10-17T20:37:25.119Z,9.48
2017-10-17T20:39:52.640Z,10.38
2017-10-17T20:42:20.581Z,9.15
2017-10-17T20:44:49.111Z,9.10
2017-10-17T20:47:16.637Z,10.30
2017-10-17T20:49:44.149Z,10.38
2017-10-17T20:52:11.695Z,10.60
2017-10-17T20:54:39.210Z,9.82
2017-10-17T20:57:06.732Z,9.18
2017-10-17T20:59:35.216Z,8.85
2017-10-17T21:02:02.727Z,8.90
2017-10-17T21:04:30.624Z,9.52
2017-10-17T21:06:58.168Z,8.85
2017-10-17T21:09:25.751Z,11.12
2017-10-17T21:11:53.281Z,11.12
2017-10-17T21:14:20.801Z,11.30
2017-10-17T21:16:48.327Z,9.43
2017-10-17T21:19:15.821Z,9.50
2017-10-17T21:21:43.330Z,10.43
2017-10-17T21:24:10.869Z,8.25
2017-10-17T21:26:38.827Z,8.38
2017-10-17T21:29:06.999Z,9.25
2017-10-17T21:31:34.912Z,8.77
2017-10-17T21:34:02.418Z,7.87
2017-10-17T21:36:30.376Z,9.90
2017-10-17T21:38:57.918Z,9.73
2017-10-17T21:41:26.634Z,9.23
2017-10-17T21:43:54.182Z,9.70
2017-10-17T21:46:21.766Z,9.65
2017-10-17T21:48:49.699Z,9.88
2017-10-17T21:51:17.771Z,12.18
2017-10-17T21:53:45.672Z,11.38
2017-10-17T21:56:13.617Z,10.38
2017-10-17T21:58:41.151Z,10.73
2017-10-17T22:01:08.682Z,9.43
2017-10-17T22:03:36.225Z,10.10
2017-10-17T22:06:05.079Z,10.40
2017-10-17T22:08:32.607Z,9.70
2017-10-17T22:11:00.139Z,8.55
2017-10-17T22:13:29.246Z,8.88
2017-10-17T22:15:56.747Z,9.23
2017-10-17T22:18:24.247Z,8.05
2017-10-17T22:20:53.578Z,7.80
2017-10-17T22:23:21.079Z,10.25
2017-10-17T22:25:48.591Z,8.48
2017-10-17T22:28:18.103Z,8.68
2017-10-17T22:30:45.656Z,10.25
2017-10-17T22:33:13.199Z,8.80
2017-10-17T22:35:40.721Z,9.48
2017-10-17T22:38:08.230Z,9.30
2017-10-17T22:40:35.740Z,8.90
2017-10-17T22:43:03.269Z,9.95
2017-10-17T22:45:30.815Z,10.27
2017-10-17T22:47:58.337Z,10.75
2017-10-17T22:50:27.219Z,10.55
2017-10-17T22:52:57.079Z,9.35
2017-10-17T22:55:24.566Z,9.77
2017-10-17T22:57:52.116Z,10.65
2017-10-17T23:00:19.603Z,9.45
2017-10-17T23:02:47.523Z,8.30
2017-10-17T23:05:15.011Z,10.55
2017-10-17T23:07:43.319Z,9.75
2017-10-17T23:10:11.201Z,9.38
2017-10-17T23:12:38.703Z,10.18
2017-10-17T23:15:06.233Z,10.68
2017-10-17T23:17:59.399Z,10.23
2017-10-17T23:20:35.691Z,10.05
2017-10-17T23:23:03.191Z,10.57
2017-10-17T23:25:31.087Z,10.70
2017-10-17T23:27:58.577Z,9.02
2017-10-17T23:30:26.059Z,9.82
2017-10-17T23:32:53.963Z,10.23
2017-10-17T23:35:21.446Z,9.15
2017-10-17T23:37:48.944Z,8.80
2017-10-17T23:40:16.833Z,11.30
2017-10-17T23:42:44.340Z,10.90
2017-10-17T23:45:11.820Z,10.38
2017-10-17T23:47:39.311Z,10.30
2017-10-17T23:50:06.827Z,10.30
2017-10-17T23:52:34.317Z,10.50
2017-10-17T23:55:01.832Z,10.38
2017-10-17T23:57:29.344Z,10.63
2017-10-17T23:59:56.844Z,9.93
